createdAt,value
2023-03-10T00:00:48.843Z,6.18
2023-03-10T00:03:15.809Z,6.50
2023-03-10T00:05:42.700Z,5.70
2023-03-10T00:08:09.672Z,6.07
2023-03-10T00:10:36.993Z,6.53
2023-03-10T00:13:03.966Z,5.72
2023-03-10T00:15:31.760Z,6.22
2023-03-10T00:17:58.672Z,6.03
2023-03-10T00:20:25.474Z,5.78
2023-03-10T00:22:52.348Z,5.88
2023-03-10T00:25:19.489Z,5.88
2023-03-10T00:27:46.453Z,5.38
2023-03-10T00:30:13.416Z,5.60
2023-03-10T00:32:40.652Z,5.22
2023-03-10T00:35:07.937Z,5.25
2023-03-10T00:37:39.064Z,5.60
2023-03-10T00:40:11.044Z,5.07
2023-03-10T00:42:37.958Z,4.13
2023-03-10T00:45:05.383Z,4.10
2023-03-10T00:47:32.697Z,4.38
2023-03-10T00:49:59.702Z,4.55
2023-03-10T00:52:26.721Z,4.05
2023-03-10T00:54:54.108Z,4.13
2023-03-10T00:57:21.457Z,4.05
2023-03-10T00:59:51.680Z,3.90
2023-03-10T01:02:20.154Z,4.10
2023-03-10T01:04:48.398Z,4.88
2023-03-10T01:07:15.470Z,4.20
2023-03-10T01:09:42.889Z,4.10
2023-03-10T01:12:09.886Z,4.07
2023-03-10T01:14:37.097Z,3.83
2023-03-10T01:17:05.429Z,4.60
2023-03-10T01:19:32.409Z,4.60
2023-03-10T01:22:01.199Z,4.35
2023-03-10T01:24:28.081Z,5.80
2023-03-10T01:26:54.999Z,5.45
2023-03-10T01:29:21.962Z,4.45
2023-03-10T01:31:48.970Z,5.13
2023-03-10T01:34:15.912Z,5.22
2023-03-10T01:36:42.837Z,5.18
2023-03-10T01:39:10.131Z,5.50
2023-03-10T01:41:41.566Z,6.32
2023-03-10T01:44:17.348Z,5.38
2023-03-10T01:46:52.355Z,5.30
2023-03-10T01:49:34.035Z,5.95
2023-03-10T01:52:01.057Z,5.30
2023-03-10T01:54:42.109Z,6.60
2023-03-10T01:57:09.629Z,5.43
2023-03-10T01:59:39.040Z,5.45
2023-03-10T02:02:07.125Z,4.90
2023-03-10T02:04:48.480Z,4.78
2023-03-10T02:07:24.808Z,4.50
2023-03-10T02:09:53.083Z,3.88
2023-03-10T02:12:20.937Z,4.95
2023-03-10T02:14:51.045Z,4.07
2023-03-10T02:17:21.354Z,4.43
2023-03-10T02:20:00.244Z,4.63
2023-03-10T02:22:27.380Z,4.13
2023-03-10T02:25:15.473Z,2.28
2023-03-10T02:27:43.062Z,2.55
2023-03-10T02:30:14.622Z,2.65
2023-03-10T02:32:45.708Z,2.75
2023-03-10T02:35:13.136Z,2.50
2023-03-10T02:37:50.830Z,2.90
2023-03-10T02:40:41.451Z,2.75
2023-03-10T02:43:23.979Z,2.67
2023-03-10T02:45:58.851Z,2.45
2023-03-10T02:48:36.351Z,2.40
2023-03-10T02:51:28.535Z,1.77
2023-03-10T02:53:58.304Z,2.20
2023-03-10T02:56:26.476Z,1.88
2023-03-10T02:58:54.489Z,2.10
2023-03-10T03:01:21.628Z,2.10
2023-03-10T03:03:48.729Z,2.00
2023-03-10T03:06:15.851Z,2.40
2023-03-10T03:08:44.670Z,2.00
2023-03-10T03:11:15.686Z,1.92
2023-03-10T03:13:42.785Z,1.92
2023-03-10T03:16:10.429Z,1.63
2023-03-10T03:18:39.880Z,1.70
2023-03-10T03:21:12.455Z,1.60
2023-03-10T03:23:40.537Z,1.33
2023-03-10T03:26:23.844Z,1.25
2023-03-10T03:28:54.022Z,1.08
2023-03-10T03:31:26.636Z,1.10
2023-03-10T03:34:04.513Z,1.52
2023-03-10T03:36:32.062Z,1.10
2023-03-10T03:38:59.055Z,1.30
2023-03-10T03:41:30.051Z,1.55
2023-03-10T03:43:57.027Z,1.23
2023-03-10T03:46:24.218Z,1.50
2023-03-10T03:48:51.404Z,1.95
2023-03-10T03:51:18.508Z,1.90
2023-03-10T03:53:45.390Z,2.30
2023-03-10T03:56:12.752Z,2.38
2023-03-10T03:58:42.380Z,3.22
2023-03-10T04:01:09.938Z,2.80
2023-03-10T04:03:43.181Z,3.10
2023-03-10T04:06:12.870Z,3.38
2023-03-10T04:08:40.221Z,3.42
2023-03-10T04:11:07.215Z,3.25
2023-03-10T04:13:37.377Z,2.90
2023-03-10T04:16:06.320Z,2.30
2023-03-10T04:18:35.882Z,2.55
2023-03-10T04:21:04.115Z,2.80
2023-03-10T04:23:32.093Z,2.92
2023-03-10T04:25:59.172Z,3.13
2023-03-10T04:28:28.973Z,3.60
2023-03-10T04:30:56.210Z,4.63
2023-03-10T04:33:26.642Z,3.50
2023-03-10T04:35:54.388Z,3.92
2023-03-10T04:38:23.694Z,2.70
2023-03-10T04:40:56.309Z,3.65
2023-03-10T04:43:27.299Z,2.95
2023-03-10T04:45:54.968Z,3.42
2023-03-10T04:48:23.775Z,3.05
2023-03-10T04:50:59.141Z,3.08
2023-03-10T04:53:29.299Z,3.55
2023-03-10T04:55:56.699Z,3.35
2023-03-10T04:58:24.023Z,2.88
2023-03-10T05:01:02.451Z,4.18
2023-03-10T05:03:32.279Z,3.40
2023-03-10T05:05:59.398Z,3.25
2023-03-10T05:08:27.128Z,3.05
2023-03-10T05:10:54.051Z,3.67
2023-03-10T05:13:21.044Z,3.67
2023-03-10T05:15:49.043Z,3.70
2023-03-10T05:18:16.647Z,3.35
2023-03-10T05:20:43.613Z,3.60
2023-03-10T05:23:10.537Z,3.20
2023-03-10T05:25:39.635Z,3.85
2023-03-10T05:28:06.744Z,4.10
2023-03-10T05:30:33.766Z,3.80
2023-03-10T05:33:01.056Z,3.00
2023-03-10T05:35:28.010Z,3.17
2023-03-10T05:37:55.263Z,3.55
2023-03-10T05:40:22.610Z,4.43
2023-03-10T05:42:51.298Z,4.35
2023-03-10T05:45:20.242Z,3.50
2023-03-10T05:47:48.288Z,3.67
2023-03-10T05:50:18.166Z,3.42
2023-03-10T05:52:45.287Z,3.75
2023-03-10T05:55:16.998Z,3.22
2023-03-10T05:57:44.895Z,3.35
2023-03-10T06:00:14.210Z,3.53
2023-03-10T06:02:43.746Z,3.70
2023-03-10T06:05:13.662Z,3.78
2023-03-10T06:07:40.826Z,3.58
2023-03-10T06:10:08.732Z,3.65
2023-03-10T06:12:35.801Z,3.47
2023-03-10T06:15:02.688Z,3.70
2023-03-10T06:17:29.636Z,4.60
2023-03-10T06:19:56.598Z,3.47
2023-03-10T06:22:23.485Z,4.20
2023-03-10T06:24:50.311Z,4.32
2023-03-10T06:27:17.262Z,4.25
2023-03-10T06:29:44.194Z,4.10
2023-03-10T06:32:11.259Z,4.57
2023-03-10T06:34:38.525Z,4.82
2023-03-10T06:37:05.592Z,4.50
2023-03-10T06:39:32.479Z,4.65
2023-03-10T06:42:01.537Z,4.60
2023-03-10T06:44:28.351Z,4.60
2023-03-10T06:46:55.262Z,4.57
2023-03-10T06:49:22.179Z,4.80
2023-03-10T06:51:49.047Z,4.90
2023-03-10T06:54:15.857Z,4.20
2023-03-10T06:56:42.766Z,4.72
2023-03-10T06:59:09.602Z,4.00
2023-03-10T07:01:36.603Z,4.53
2023-03-10T07:04:04.147Z,4.22
2023-03-10T07:06:31.263Z,4.22
2023-03-10T07:08:58.722Z,5.00
2023-03-10T07:11:26.698Z,5.22
2023-03-10T07:13:54.740Z,4.75
2023-03-10T07:16:22.313Z,4.95
2023-03-10T07:18:49.482Z,4.47
2023-03-10T07:21:18.373Z,4.68
2023-03-10T07:23:45.768Z,4.20
2023-03-10T07:26:15.610Z,5.07
2023-03-10T07:28:42.438Z,4.80
2023-03-10T07:31:12.362Z,4.78
2023-03-10T07:33:39.469Z,4.63
2023-03-10T07:36:09.416Z,4.82
2023-03-10T07:38:36.353Z,4.90
2023-03-10T07:41:10.447Z,5.28
2023-03-10T07:43:37.946Z,5.55
2023-03-10T07:46:09.488Z,5.03
2023-03-10T07:48:36.623Z,5.53
2023-03-10T07:51:03.816Z,5.20
2023-03-10T07:53:30.881Z,5.10
2023-03-10T07:55:58.118Z,4.90
2023-03-10T07:58:25.170Z,4.63
2023-03-10T08:00:57.585Z,4.40
2023-03-10T08:03:26.020Z,4.20
2023-03-10T08:05:53.123Z,4.07
2023-03-10T08:08:20.137Z,3.85
2023-03-10T08:10:47.207Z,3.63
2023-03-10T08:13:14.439Z,3.30
2023-03-10T08:15:41.524Z,4.03
2023-03-10T08:18:09.176Z,3.58
2023-03-10T08:20:36.878Z,4.03
2023-03-10T08:23:04.251Z,4.10
2023-03-10T08:25:31.181Z,3.85
2023-03-10T08:27:58.191Z,3.92
2023-03-10T08:30:25.133Z,3.60
2023-03-10T08:32:52.091Z,3.75
2023-03-10T08:35:19.607Z,4.05
2023-03-10T08:37:46.814Z,4.10
2023-03-10T08:40:16.200Z,4.25
2023-03-10T08:42:43.807Z,4.60
2023-03-10T08:45:12.521Z,5.40
2023-03-10T08:47:39.617Z,5.32
2023-03-10T08:50:07.550Z,5.65
2023-03-10T08:52:34.805Z,5.75
2023-03-10T08:55:01.725Z,5.65
2023-03-10T08:57:28.641Z,4.78
2023-03-10T08:59:55.477Z,3.90
2023-03-10T09:02:22.474Z,2.97
2023-03-10T09:04:50.534Z,2.35
2023-03-10T09:07:17.803Z,3.00
2023-03-10T09:09:45.031Z,2.80
2023-03-10T09:12:12.501Z,3.20
2023-03-10T09:14:39.639Z,2.63
2023-03-10T09:17:06.645Z,3.42
2023-03-10T09:19:33.540Z,3.00
2023-03-10T09:22:00.433Z,3.67
2023-03-10T09:24:27.361Z,2.97
2023-03-10T09:26:55.878Z,2.83
2023-03-10T09:29:36.533Z,3.85
2023-03-10T09:32:09.096Z,3.35
2023-03-10T09:34:36.139Z,4.00
2023-03-10T09:37:03.617Z,3.53
2023-03-10T09:39:30.514Z,3.47
2023-03-10T09:42:25.554Z,4.35
2023-03-10T09:45:29.811Z,5.13
2023-03-10T09:50:49.804Z,5.13
2023-03-10T09:53:42.508Z,4.85
2023-03-10T09:56:18.684Z,3.83
2023-03-10T09:58:58.807Z,4.43
2023-03-10T10:01:29.951Z,5.20
2023-03-10T10:04:08.230Z,5.57
2023-03-10T10:06:37.931Z,4.28
2023-03-10T10:09:05.786Z,3.13
2023-03-10T10:11:36.558Z,3.95
2023-03-10T10:14:30.561Z,4.35
2023-03-10T10:17:28.959Z,4.55
2023-03-10T10:19:57.573Z,4.40
2023-03-10T10:22:28.816Z,4.05
2023-03-10T10:25:16.897Z,3.17
2023-03-10T10:27:45.613Z,4.35
2023-03-10T10:30:32.230Z,4.18
2023-03-10T10:33:19.526Z,3.72
2023-03-10T10:36:01.443Z,3.50
2023-03-10T10:38:30.863Z,2.75
2023-03-10T10:41:21.237Z,2.72
2023-03-10T10:43:48.919Z,3.58
2023-03-10T10:46:23.487Z,4.20
2023-03-10T10:48:59.910Z,3.57
2023-03-10T10:51:34.047Z,3.72
2023-03-10T10:54:05.066Z,3.05
2023-03-10T10:56:32.423Z,3.13
2023-03-10T10:59:07.044Z,5.38
2023-03-10T11:01:56.163Z,3.63
2023-03-10T11:04:24.929Z,3.53
2023-03-10T11:06:52.825Z,3.30
2023-03-10T11:09:23.865Z,4.18
2023-03-10T11:12:20.436Z,3.72
2023-03-10T11:15:07.456Z,3.90
2023-03-10T11:17:43.740Z,4.05
2023-03-10T11:20:39.102Z,5.15
2023-03-10T11:23:24.572Z,4.68
2023-03-10T11:26:25.725Z,4.53
2023-03-10T11:29:05.280Z,4.43
2023-03-10T11:31:47.305Z,5.68
2023-03-10T11:34:30.303Z,6.95
2023-03-10T11:37:24.969Z,6.18
2023-03-10T11:40:18.649Z,5.50
2023-03-10T11:42:59.265Z,5.13
2023-03-10T11:45:45.507Z,4.15
2023-03-10T11:48:29.181Z,3.88
2023-03-10T11:51:04.563Z,3.72
2023-03-10T11:56:17.423Z,2.50
2023-03-10T11:59:05.862Z,3.53
2023-03-10T12:01:38.309Z,2.85
2023-03-10T12:04:16.806Z,3.28
2023-03-10T12:06:55.983Z,3.03
2023-03-10T12:09:39.910Z,3.20
2023-03-10T12:12:12.705Z,3.30
2023-03-10T12:14:41.395Z,3.42
2023-03-10T12:17:12.683Z,3.75
2023-03-10T12:20:13.672Z,2.83
2023-03-10T12:23:01.056Z,3.08
2023-03-10T12:25:32.746Z,2.83
2023-03-10T12:28:20.594Z,3.05
2023-03-10T12:30:58.954Z,2.63
2023-03-10T12:33:34.805Z,2.83
2023-03-10T12:36:04.247Z,2.78
2023-03-10T12:39:01.613Z,3.58
2023-03-10T12:41:28.506Z,3.80
2023-03-10T12:44:24.892Z,3.08
2023-03-10T12:47:28.953Z,2.85
2023-03-10T12:50:05.845Z,2.95
2023-03-10T12:52:38.143Z,2.97
2023-03-10T12:55:24.494Z,2.53
2023-03-10T12:58:12.972Z,2.40
2023-03-10T13:01:06.538Z,2.88
2023-03-10T13:03:50.908Z,2.88
2023-03-10T13:06:22.162Z,4.03
2023-03-10T13:08:53.790Z,3.85
2023-03-10T13:11:41.241Z,4.75
2023-03-10T13:14:15.003Z,5.93
2023-03-10T13:16:52.062Z,5.95
2023-03-10T13:19:20.858Z,6.93
2023-03-10T13:21:50.093Z,5.53
2023-03-10T13:24:39.085Z,6.57
2023-03-10T13:27:18.887Z,5.85
2023-03-10T13:29:59.448Z,5.80
2023-03-10T13:32:27.003Z,8.00
2023-03-10T13:34:54.065Z,7.25
2023-03-10T13:37:21.239Z,8.00
2023-03-10T13:39:48.079Z,7.60
2023-03-10T13:42:37.089Z,7.80
2023-03-10T13:45:21.858Z,6.68
2023-03-10T13:47:49.613Z,5.93
2023-03-10T13:50:17.506Z,5.47
2023-03-10T13:52:57.316Z,5.18
2023-03-10T13:55:24.398Z,5.13
2023-03-10T13:57:51.911Z,6.43
2023-03-10T14:00:21.609Z,7.38
2023-03-10T14:02:50.838Z,6.28
2023-03-10T14:05:47.211Z,6.55
2023-03-10T14:08:20.775Z,4.82
2023-03-10T14:10:47.860Z,4.20
2023-03-10T14:13:40.459Z,3.58
2023-03-10T14:16:08.001Z,3.95
2023-03-10T14:18:37.503Z,4.95
2023-03-10T14:21:30.404Z,4.20
2023-03-10T14:24:03.826Z,4.40
2023-03-10T14:26:30.899Z,4.65
2023-03-10T14:28:57.988Z,4.32
2023-03-10T14:31:25.352Z,4.53
2023-03-10T14:33:52.502Z,4.78
2023-03-10T14:36:19.440Z,3.75
2023-03-10T14:38:46.360Z,3.10
2023-03-10T14:41:14.054Z,3.45
2023-03-10T14:43:42.027Z,4.75
2023-03-10T14:46:11.818Z,4.05
2023-03-10T14:48:41.885Z,5.28
2023-03-10T14:51:17.851Z,4.40
2023-03-10T14:53:49.528Z,3.63
2023-03-10T14:56:21.505Z,4.10
2023-03-10T14:58:51.468Z,5.47
2023-03-10T15:01:20.351Z,3.30
2023-03-10T15:03:49.066Z,3.95
2023-03-10T15:06:19.397Z,2.63
2023-03-10T15:08:46.359Z,4.05
2023-03-10T15:11:14.692Z,3.00
2023-03-10T15:13:43.186Z,3.92
2023-03-10T15:16:13.810Z,3.00
2023-03-10T15:18:40.739Z,3.88
2023-03-10T15:21:08.938Z,2.63
2023-03-10T15:23:35.878Z,2.97
2023-03-10T15:26:09.809Z,3.70
2023-03-10T15:28:37.474Z,4.28
2023-03-10T15:31:05.074Z,3.20
2023-03-10T15:33:32.420Z,3.45
2023-03-10T15:35:59.426Z,3.10
2023-03-10T15:38:26.385Z,3.28
2023-03-10T15:40:53.269Z,3.63
2023-03-10T15:43:20.166Z,3.10
2023-03-10T15:45:49.129Z,2.78
2023-03-10T15:48:16.843Z,2.00
2023-03-10T15:50:47.014Z,2.05
2023-03-10T15:53:14.654Z,1.70
2023-03-10T15:55:42.603Z,2.17
2023-03-10T15:58:11.400Z,2.13
2023-03-10T16:00:38.317Z,2.30
2023-03-10T16:03:05.252Z,1.92
2023-03-10T16:05:32.217Z,2.13
2023-03-10T16:07:59.231Z,1.65
2023-03-10T16:10:26.402Z,1.60
2023-03-10T16:12:53.685Z,2.80
2023-03-10T16:15:20.511Z,2.10
2023-03-10T16:17:47.448Z,1.88
2023-03-10T16:20:14.656Z,2.72
2023-03-10T16:22:43.080Z,2.60
2023-03-10T16:25:15.146Z,3.33
2023-03-10T16:27:43.383Z,2.97
2023-03-10T16:30:12.253Z,3.28
2023-03-10T16:32:39.330Z,3.22
2023-03-10T16:35:06.912Z,2.60
2023-03-10T16:37:33.813Z,2.90
2023-03-10T16:40:00.842Z,2.97
2023-03-10T16:42:29.076Z,1.60
2023-03-10T16:44:56.815Z,2.35
2023-03-10T16:47:24.382Z,2.83
2023-03-10T16:49:51.319Z,2.78
2023-03-10T16:52:18.222Z,1.60
2023-03-10T16:54:46.623Z,2.78
2023-03-10T16:57:15.128Z,2.45
2023-03-10T16:59:42.886Z,2.40
2023-03-10T17:02:15.416Z,1.95
2023-03-10T17:04:42.570Z,2.47
2023-03-10T17:07:09.444Z,1.73
2023-03-10T17:09:38.020Z,2.10
2023-03-10T17:12:05.755Z,2.33
2023-03-10T17:14:32.815Z,1.88
2023-03-10T17:17:02.309Z,2.10
2023-03-10T17:19:30.157Z,1.90
2023-03-10T17:21:58.328Z,2.20
2023-03-10T17:24:26.393Z,1.70
2023-03-10T17:26:53.627Z,1.67
2023-03-10T17:29:20.740Z,1.52
2023-03-10T17:31:50.478Z,2.00
2023-03-10T17:34:18.480Z,1.70
2023-03-10T17:36:45.915Z,1.92
2023-03-10T17:39:19.008Z,1.92
2023-03-10T17:41:46.303Z,1.65
2023-03-10T17:44:13.443Z,2.22
2023-03-10T17:46:43.343Z,2.15
2023-03-10T17:49:15.057Z,2.50
2023-03-10T17:51:44.279Z,2.65
2023-03-10T17:54:23.506Z,1.98
2023-03-10T17:56:50.820Z,1.60
2023-03-10T17:59:17.783Z,1.60
2023-03-10T18:01:45.481Z,1.40
2023-03-10T18:04:13.025Z,1.90
2023-03-10T18:06:40.404Z,2.35
2023-03-10T18:09:11.294Z,2.03
2023-03-10T18:11:38.902Z,1.80
2023-03-10T18:14:06.202Z,2.22
2023-03-10T18:16:37.950Z,1.88
2023-03-10T18:19:05.834Z,1.35
2023-03-10T18:21:32.811Z,2.05
2023-03-10T18:23:59.684Z,1.45
2023-03-10T18:26:31.847Z,1.70
2023-03-10T18:28:59.924Z,1.13
2023-03-10T18:31:29.787Z,1.25
2023-03-10T18:33:56.916Z,2.35
2023-03-10T18:36:24.802Z,1.83
2023-03-10T18:38:52.494Z,2.63
2023-03-10T18:41:24.550Z,2.20
2023-03-10T18:43:52.338Z,2.42
2023-03-10T18:46:19.676Z,1.88
2023-03-10T18:48:46.710Z,2.50
2023-03-10T18:51:13.702Z,2.55
2023-03-10T18:53:40.760Z,2.78
2023-03-10T18:56:08.069Z,2.70
2023-03-10T18:58:35.134Z,2.15
2023-03-10T19:01:01.971Z,1.95
2023-03-10T19:03:30.054Z,23.10
2023-03-10T19:05:57.530Z,12.45
2023-03-10T19:08:25.651Z,4.80
2023-03-10T19:10:57.823Z,5.38
2023-03-10T19:13:26.699Z,4.60
2023-03-10T19:15:53.772Z,4.47
2023-03-10T19:18:20.882Z,2.35
2023-03-10T19:20:47.739Z,4.78
2023-03-10T19:23:15.149Z,7.63
2023-03-10T19:25:42.148Z,7.15
2023-03-10T19:28:09.078Z,4.28
2023-03-10T19:30:35.927Z,2.70
2023-03-10T19:33:03.052Z,3.92
2023-03-10T19:35:30.046Z,3.90
2023-03-10T19:37:57.047Z,2.47
2023-03-10T19:40:24.096Z,2.63
2023-03-10T19:42:51.052Z,3.03
2023-03-10T19:45:18.601Z,2.72
2023-03-10T19:47:47.005Z,2.45
2023-03-10T19:50:16.109Z,9.40
2023-03-10T19:52:48.298Z,2.08
2023-03-10T19:55:19.559Z,1.92
2023-03-10T19:57:48.675Z,3.05
2023-03-10T20:00:20.534Z,2.55
2023-03-10T20:02:47.712Z,3.38
2023-03-10T20:05:16.004Z,2.58
2023-03-10T20:07:46.638Z,2.13
2023-03-10T20:10:16.477Z,2.17
2023-03-10T20:12:43.527Z,2.13
2023-03-10T20:15:10.967Z,2.20
2023-03-10T20:17:38.015Z,1.80
2023-03-10T20:20:10.299Z,1.75
2023-03-10T20:22:42.917Z,1.83
2023-03-10T20:25:12.228Z,1.92
2023-03-10T20:27:39.214Z,1.63
2023-03-10T20:30:19.196Z,1.30
2023-03-10T20:32:46.616Z,1.58
2023-03-10T20:35:14.027Z,1.60
2023-03-10T20:37:42.165Z,1.30
2023-03-10T20:40:11.865Z,1.83
2023-03-10T20:42:39.700Z,1.77
2023-03-10T20:45:08.608Z,2.10
2023-03-10T20:47:35.798Z,3.33
2023-03-10T20:50:03.955Z,2.28
2023-03-10T20:52:35.286Z,2.03
2023-03-10T20:55:04.292Z,2.40
2023-03-10T20:57:32.052Z,2.25
2023-03-10T20:59:59.001Z,7.35
2023-03-10T21:02:25.870Z,3.00
2023-03-10T21:04:52.769Z,2.13
2023-03-10T21:07:19.718Z,3.80
2023-03-10T21:09:46.693Z,2.35
2023-03-10T21:12:18.420Z,2.00
2023-03-10T21:14:45.992Z,1.80
2023-03-10T21:17:13.125Z,2.33
2023-03-10T21:19:40.052Z,1.85
2023-03-10T21:22:06.972Z,1.70
2023-03-10T21:24:33.987Z,1.77
2023-03-10T21:27:01.210Z,2.28
2023-03-10T21:29:28.214Z,1.92
2023-03-10T21:31:55.141Z,2.03
2023-03-10T21:34:22.251Z,2.22
2023-03-10T21:36:49.150Z,1.52
2023-03-10T21:39:16.298Z,1.60
2023-03-10T21:41:43.178Z,2.35
2023-03-10T21:44:11.352Z,1.90
2023-03-10T21:46:38.364Z,1.88
2023-03-10T21:49:05.526Z,2.22
2023-03-10T21:51:34.788Z,1.55
2023-03-10T21:54:03.020Z,1.95
2023-03-10T21:56:29.950Z,1.73
2023-03-10T21:58:57.528Z,1.65
2023-03-10T22:01:25.224Z,1.63
2023-03-10T22:03:52.138Z,2.58
2023-03-10T22:06:19.469Z,1.80
2023-03-10T22:08:46.374Z,1.63
2023-03-10T22:11:13.544Z,1.70
2023-03-10T22:13:40.534Z,2.05
2023-03-10T22:16:10.645Z,1.60
2023-03-10T22:18:38.037Z,1.42
2023-03-10T22:21:05.662Z,2.00
2023-03-10T22:23:32.536Z,1.83
2023-03-10T22:25:59.663Z,1.73
2023-03-10T22:28:26.626Z,2.00
2023-03-10T22:30:53.630Z,1.58
2023-03-10T22:33:20.624Z,1.67
2023-03-10T22:35:52.066Z,2.33
2023-03-10T22:38:20.268Z,2.00
2023-03-10T22:40:47.944Z,2.35
2023-03-10T22:43:15.559Z,2.03
2023-03-10T22:45:42.687Z,3.08
2023-03-10T22:48:09.642Z,1.52
2023-03-10T22:50:39.916Z,1.90
2023-03-10T22:53:11.112Z,1.73
2023-03-10T22:55:38.560Z,1.42
2023-03-10T22:58:07.206Z,1.50
2023-03-10T23:00:34.443Z,1.25
2023-03-10T23:03:01.895Z,1.50
2023-03-10T23:05:28.944Z,1.45
2023-03-10T23:07:55.755Z,0.95
2023-03-10T23:10:32.243Z,1.10
2023-03-10T23:13:01.803Z,1.35
2023-03-10T23:15:33.617Z,1.30
2023-03-10T23:18:01.058Z,1.30
2023-03-10T23:20:30.774Z,1.60
2023-03-10T23:23:00.097Z,1.58
2023-03-10T23:25:29.115Z,0.95
2023-03-10T23:27:56.841Z,1.20
2023-03-10T23:30:25.156Z,1.23
2023-03-10T23:32:53.466Z,1.38
2023-03-10T23:35:31.864Z,1.20
2023-03-10T23:38:02.553Z,1.10
2023-03-10T23:40:31.947Z,1.60
2023-03-10T23:43:00.616Z,1.83
2023-03-10T23:45:29.824Z,1.30
2023-03-10T23:47:58.732Z,1.23
2023-03-10T23:50:46.979Z,1.73
2023-03-10T23:53:15.782Z,1.23
2023-03-10T23:55:45.600Z,1.60
2023-03-10T23:58:14.369Z,1.17
